sensor_id;sensor_type;location;lat;lon;timestamp;temperature;humidity
17174;DHT22;8702;48.130;-1.696;2023-04-26T00:02:23;13.20;99.90
17174;DHT22;8702;48.130;-1.696;2023-04-26T00:04:53;13.20;99.90
17174;DHT22;8702;48.130;-1.696;2023-04-26T00:07:21;13.30;99.90
17174;DHT22;8702;48.130;-1.696;2023-04-26T00:09:48;13.30;99.90
17174;DHT22;8702;48.130;-1.696;2023-04-26T00:12:15;13.40;99.90
17174;DHT22;8702;48.130;-1.696;2023-04-26T00:14:42;13.30;99.90
17174;DHT22;8702;48.130;-1.696;2023-04-26T00:17:09;13.10;99.90
17174;DHT22;8702;48.130;-1.696;2023-04-26T00:19:35;13.10;99.90
17174;DHT22;8702;48.130;-1.696;2023-04-26T00:22:04;13.00;99.90
17174;DHT22;8702;48.130;-1.696;2023-04-26T00:24:31;13.00;99.90
17174;DHT22;8702;48.130;-1.696;2023-04-26T00:26:58;13.10;99.90
17174;DHT22;8702;48.130;-1.696;2023-04-26T00:29:26;13.10;99.90
17174;DHT22;8702;48.130;-1.696;2023-04-26T00:31:53;13.20;99.90
17174;DHT22;8702;48.130;-1.696;2023-04-26T00:34:20;13.20;99.90
17174;DHT22;8702;48.130;-1.696;2023-04-26T00:36:47;13.10;99.90
17174;DHT22;8702;48.130;-1.696;2023-04-26T00:39:15;13.10;99.90
17174;DHT22;8702;48.130;-1.696;2023-04-26T00:41:42;13.10;99.90
17174;DHT22;8702;48.130;-1.696;2023-04-26T00:44:09;13.10;99.90
17174;DHT22;8702;48.130;-1.696;2023-04-26T00:51:33;13.20;99.90
17174;DHT22;8702;48.130;-1.696;2023-04-26T00:54:01;13.20;99.90
17174;DHT22;8702;48.130;-1.696;2023-04-26T00:56:30;13.20;99.90
17174;DHT22;8702;48.130;-1.696;2023-04-26T00:58:57;13.10;99.90
17174;DHT22;8702;48.130;-1.696;2023-04-26T01:01:24;13.10;99.90
17174;DHT22;8702;48.130;-1.696;2023-04-26T01:03:50;13.10;99.90
17174;DHT22;8702;48.130;-1.696;2023-04-26T01:06:18;13.10;99.90
17174;DHT22;8702;48.130;-1.696;2023-04-26T01:08:45;13.10;99.90
17174;DHT22;8702;48.130;-1.696;2023-04-26T01:11:12;13.10;99.90
17174;DHT22;8702;48.130;-1.696;2023-04-26T01:13:41;13.10;99.90
17174;DHT22;8702;48.130;-1.696;2023-04-26T01:16:09;13.00;99.90
17174;DHT22;8702;48.130;-1.696;2023-04-26T01:18:36;13.00;99.90
17174;DHT22;8702;48.130;-1.696;2023-04-26T01:21:03;12.90;99.90
17174;DHT22;8702;48.130;-1.696;2023-04-26T01:23:32;12.90;99.90
17174;DHT22;8702;48.130;-1.696;2023-04-26T01:25:59;12.90;99.90
17174;DHT22;8702;48.130;-1.696;2023-04-26T01:28:25;13.00;99.90
17174;DHT22;8702;48.130;-1.696;2023-04-26T01:30:52;13.00;99.90
17174;DHT22;8702;48.130;-1.696;2023-04-26T01:33:19;13.00;99.90
17174;DHT22;8702;48.130;-1.696;2023-04-26T01:35:46;13.10;99.90
17174;DHT22;8702;48.130;-1.696;2023-04-26T01:38:13;13.00;99.90
17174;DHT22;8702;48.130;-1.696;2023-04-26T01:40:43;13.00;99.90
17174;DHT22;8702;48.130;-1.696;2023-04-26T01:43:10;13.00;99.90
17174;DHT22;8702;48.130;-1.696;2023-04-26T01:45:37;13.00;99.90
17174;DHT22;8702;48.130;-1.696;2023-04-26T01:48:05;12.90;99.90
17174;DHT22;8702;48.130;-1.696;2023-04-26T01:50:33;13.00;99.90
17174;DHT22;8702;48.130;-1.696;2023-04-26T01:53:00;13.00;99.90
17174;DHT22;8702;48.130;-1.696;2023-04-26T01:55:27;13.00;99.90
17174;DHT22;8702;48.130;-1.696;2023-04-26T01:57:55;13.00;99.90
17174;DHT22;8702;48.130;-1.696;2023-04-26T02:00:22;12.90;99.90
17174;DHT22;8702;48.130;-1.696;2023-04-26T02:02:49;13.00;99.90
17174;DHT22;8702;48.130;-1.696;2023-04-26T02:05:16;13.00;99.90
17174;DHT22;8702;48.130;-1.696;2023-04-26T02:07:43;13.00;99.90
17174;DHT22;8702;48.130;-1.696;2023-04-26T02:10:10;13.00;99.90
17174;DHT22;8702;48.130;-1.696;2023-04-26T02:12:37;13.00;99.90
17174;DHT22;8702;48.130;-1.696;2023-04-26T02:15:07;12.90;99.90
17174;DHT22;8702;48.130;-1.696;2023-04-26T02:17:34;13.00;99.90
17174;DHT22;8702;48.130;-1.696;2023-04-26T02:20:02;12.90;99.90
17174;DHT22;8702;48.130;-1.696;2023-04-26T02:22:31;12.90;99.90
17174;DHT22;8702;48.130;-1.696;2023-04-26T02:24:58;12.80;99.90
17174;DHT22;8702;48.130;-1.696;2023-04-26T02:27:25;12.80;99.90
17174;DHT22;8702;48.130;-1.696;2023-04-26T02:29:52;12.80;99.90
17174;DHT22;8702;48.130;-1.696;2023-04-26T02:32:20;12.70;99.90
17174;DHT22;8702;48.130;-1.696;2023-04-26T02:34:47;12.80;99.90
17174;DHT22;8702;48.130;-1.696;2023-04-26T02:37:14;12.80;99.90
17174;DHT22;8702;48.130;-1.696;2023-04-26T02:39:41;12.80;99.90
17174;DHT22;8702;48.130;-1.696;2023-04-26T02:42:08;12.90;99.90
17174;DHT22;8702;48.130;-1.696;2023-04-26T02:44:36;12.80;99.90
17174;DHT22;8702;48.130;-1.696;2023-04-26T02:47:04;12.70;99.90
17174;DHT22;8702;48.130;-1.696;2023-04-26T02:49:32;12.70;99.90
17174;DHT22;8702;48.130;-1.696;2023-04-26T02:51:59;12.80;99.90
17174;DHT22;8702;48.130;-1.696;2023-04-26T02:54:26;12.80;99.90
17174;DHT22;8702;48.130;-1.696;2023-04-26T02:56:53;12.80;99.90
17174;DHT22;8702;48.130;-1.696;2023-04-26T02:59:20;12.80;99.90
17174;DHT22;8702;48.130;-1.696;2023-04-26T03:01:47;12.80;99.90
17174;DHT22;8702;48.130;-1.696;2023-04-26T03:04:14;12.80;99.90
17174;DHT22;8702;48.130;-1.696;2023-04-26T03:06:43;12.80;99.90
17174;DHT22;8702;48.130;-1.696;2023-04-26T03:09:10;12.70;99.90
17174;DHT22;8702;48.130;-1.696;2023-04-26T03:11:37;12.70;99.90
17174;DHT22;8702;48.130;-1.696;2023-04-26T03:14:04;12.80;99.90
17174;DHT22;8702;48.130;-1.696;2023-04-26T03:16:37;12.80;99.90
17174;DHT22;8702;48.130;-1.696;2023-04-26T03:19:06;12.80;99.90
17174;DHT22;8702;48.130;-1.696;2023-04-26T03:21:33;12.90;99.90
17174;DHT22;8702;48.130;-1.696;2023-04-26T03:24:01;12.90;99.90
17174;DHT22;8702;48.130;-1.696;2023-04-26T03:26:28;12.90;99.90
17174;DHT22;8702;48.130;-1.696;2023-04-26T03:28:55;12.80;99.90
17174;DHT22;8702;48.130;-1.696;2023-04-26T03:31:22;12.80;99.90
17174;DHT22;8702;48.130;-1.696;2023-04-26T03:33:50;12.80;99.90
17174;DHT22;8702;48.130;-1.696;2023-04-26T03:36:17;12.80;99.90
17174;DHT22;8702;48.130;-1.696;2023-04-26T03:38:44;12.80;99.90
17174;DHT22;8702;48.130;-1.696;2023-04-26T03:41:12;12.80;99.90
17174;DHT22;8702;48.130;-1.696;2023-04-26T03:43:39;12.90;99.90
17174;DHT22;8702;48.130;-1.696;2023-04-26T03:46:06;12.80;99.90
17174;DHT22;8702;48.130;-1.696;2023-04-26T03:48:33;12.80;99.90
17174;DHT22;8702;48.130;-1.696;2023-04-26T03:51:01;12.80;99.90
17174;DHT22;8702;48.130;-1.696;2023-04-26T03:53:28;12.70;99.90
17174;DHT22;8702;48.130;-1.696;2023-04-26T03:55:55;13.00;99.90
17174;DHT22;8702;48.130;-1.696;2023-04-26T03:58:24;12.70;99.90
17174;DHT22;8702;48.130;-1.696;2023-04-26T04:00:51;12.70;99.90
17174;DHT22;8702;48.130;-1.696;2023-04-26T04:03:18;12.60;99.90
17174;DHT22;8702;48.130;-1.696;2023-04-26T04:05:46;12.70;99.90
17174;DHT22;8702;48.130;-1.696;2023-04-26T04:08:13;12.70;99.90
17174;DHT22;8702;48.130;-1.696;2023-04-26T04:10:40;12.70;99.90
17174;DHT22;8702;48.130;-1.696;2023-04-26T04:13:08;12.70;99.90
17174;DHT22;8702;48.130;-1.696;2023-04-26T04:15:36;12.70;99.90
17174;DHT22;8702;48.130;-1.696;2023-04-26T04:18:03;12.80;99.90
17174;DHT22;8702;48.130;-1.696;2023-04-26T04:20:30;12.70;99.90
17174;DHT22;8702;48.130;-1.696;2023-04-26T04:22:57;12.70;99.90
17174;DHT22;8702;48.130;-1.696;2023-04-26T04:25:24;12.70;99.90
17174;DHT22;8702;48.130;-1.696;2023-04-26T04:27:51;12.70;99.90
17174;DHT22;8702;48.130;-1.696;2023-04-26T04:30:18;12.80;99.90
17174;DHT22;8702;48.130;-1.696;2023-04-26T04:32:47;12.70;99.90
17174;DHT22;8702;48.130;-1.696;2023-04-26T04:35:14;12.70;99.90
17174;DHT22;8702;48.130;-1.696;2023-04-26T04:37:41;12.70;99.90
17174;DHT22;8702;48.130;-1.696;2023-04-26T04:40:10;12.60;99.90
17174;DHT22;8702;48.130;-1.696;2023-04-26T04:42:40;12.60;99.90
17174;DHT22;8702;48.130;-1.696;2023-04-26T04:45:09;12.50;99.90
17174;DHT22;8702;48.130;-1.696;2023-04-26T04:47:36;12.60;99.90
17174;DHT22;8702;48.130;-1.696;2023-04-26T04:50:06;12.60;99.90
17174;DHT22;8702;48.130;-1.696;2023-04-26T04:52:33;12.70;99.90
17174;DHT22;8702;48.130;-1.696;2023-04-26T04:55:01;12.70;99.90
17174;DHT22;8702;48.130;-1.696;2023-04-26T04:57:28;12.60;99.90
17174;DHT22;8702;48.130;-1.696;2023-04-26T04:59:56;12.60;99.90
17174;DHT22;8702;48.130;-1.696;2023-04-26T05:02:23;12.50;99.90
17174;DHT22;8702;48.130;-1.696;2023-04-26T05:04:50;12.60;99.90
17174;DHT22;8702;48.130;-1.696;2023-04-26T05:07:18;12.50;99.90
17174;DHT22;8702;48.130;-1.696;2023-04-26T05:09:45;12.60;99.90
17174;DHT22;8702;48.130;-1.696;2023-04-26T05:12:12;12.60;99.90
17174;DHT22;8702;48.130;-1.696;2023-04-26T05:14:39;12.60;99.90
17174;DHT22;8702;48.130;-1.696;2023-04-26T05:17:06;12.70;99.90
17174;DHT22;8702;48.130;-1.696;2023-04-26T05:19:33;12.60;99.90
17174;DHT22;8702;48.130;-1.696;2023-04-26T05:22:00;13.30;99.90
17174;DHT22;8702;48.130;-1.696;2023-04-26T05:24:30;12.90;99.90
17174;DHT22;8702;48.130;-1.696;2023-04-26T05:26:57;12.60;99.90
17174;DHT22;8702;48.130;-1.696;2023-04-26T05:29:27;12.50;99.90
17174;DHT22;8702;48.130;-1.696;2023-04-26T05:31:54;13.10;99.90
17174;DHT22;8702;48.130;-1.696;2023-04-26T05:34:23;12.60;99.90
17174;DHT22;8702;48.130;-1.696;2023-04-26T05:36:50;12.50;99.90
17174;DHT22;8702;48.130;-1.696;2023-04-26T05:39:17;12.60;99.90
17174;DHT22;8702;48.130;-1.696;2023-04-26T05:41:47;12.50;99.90
17174;DHT22;8702;48.130;-1.696;2023-04-26T05:44:14;12.50;99.90
17174;DHT22;8702;48.130;-1.696;2023-04-26T05:46:41;12.40;99.90
17174;DHT22;8702;48.130;-1.696;2023-04-26T05:49:08;12.50;99.90
17174;DHT22;8702;48.130;-1.696;2023-04-26T05:51:35;12.40;99.90
17174;DHT22;8702;48.130;-1.696;2023-04-26T05:54:04;12.70;99.90
17174;DHT22;8702;48.130;-1.696;2023-04-26T05:56:31;12.50;99.90
17174;DHT22;8702;48.130;-1.696;2023-04-26T06:01:31;12.40;99.90
17174;DHT22;8702;48.130;-1.696;2023-04-26T06:04:01;12.50;99.90
17174;DHT22;8702;48.130;-1.696;2023-04-26T06:06:28;12.50;99.90
17174;DHT22;8702;48.130;-1.696;2023-04-26T06:08:55;12.40;99.90
17174;DHT22;8702;48.130;-1.696;2023-04-26T06:11:22;12.40;99.90
17174;DHT22;8702;48.130;-1.696;2023-04-26T06:13:49;12.40;99.90
17174;DHT22;8702;48.130;-1.696;2023-04-26T06:16:18;12.40;99.90
17174;DHT22;8702;48.130;-1.696;2023-04-26T06:18:45;12.40;99.90
17174;DHT22;8702;48.130;-1.696;2023-04-26T06:21:11;12.40;99.90
17174;DHT22;8702;48.130;-1.696;2023-04-26T06:23:38;12.40;99.90
17174;DHT22;8702;48.130;-1.696;2023-04-26T06:26:05;12.40;99.90
17174;DHT22;8702;48.130;-1.696;2023-04-26T06:28:32;12.30;99.90
17174;DHT22;8702;48.130;-1.696;2023-04-26T06:30:59;12.40;99.90
17174;DHT22;8702;48.130;-1.696;2023-04-26T06:33:27;12.30;99.90
17174;DHT22;8702;48.130;-1.696;2023-04-26T06:35:54;12.30;99.90
17174;DHT22;8702;48.130;-1.696;2023-04-26T06:38:21;12.40;99.90
17174;DHT22;8702;48.130;-1.696;2023-04-26T06:40:48;12.40;99.90
17174;DHT22;8702;48.130;-1.696;2023-04-26T06:43:15;12.40;99.90
17174;DHT22;8702;48.130;-1.696;2023-04-26T06:45:42;12.30;99.90
17174;DHT22;8702;48.130;-1.696;2023-04-26T06:48:09;12.30;99.90
17174;DHT22;8702;48.130;-1.696;2023-04-26T06:50:38;12.40;99.90
17174;DHT22;8702;48.130;-1.696;2023-04-26T06:53:05;12.40;99.90
17174;DHT22;8702;48.130;-1.696;2023-04-26T06:55:32;12.40;99.90
17174;DHT22;8702;48.130;-1.696;2023-04-26T06:57:59;12.50;99.90
17174;DHT22;8702;48.130;-1.696;2023-04-26T07:00:26;12.50;99.90
17174;DHT22;8702;48.130;-1.696;2023-04-26T07:02:54;12.50;99.90
17174;DHT22;8702;48.130;-1.696;2023-04-26T07:05:21;12.50;99.90
17174;DHT22;8702;48.130;-1.696;2023-04-26T07:07:50;12.50;99.90
17174;DHT22;8702;48.130;-1.696;2023-04-26T07:10:17;12.50;99.90
17174;DHT22;8702;48.130;-1.696;2023-04-26T07:12:45;12.50;99.90
17174;DHT22;8702;48.130;-1.696;2023-04-26T07:15:12;12.50;99.90
17174;DHT22;8702;48.130;-1.696;2023-04-26T07:17:39;12.50;99.90
17174;DHT22;8702;48.130;-1.696;2023-04-26T07:20:07;12.40;99.90
17174;DHT22;8702;48.130;-1.696;2023-04-26T07:22:34;12.40;99.90
17174;DHT22;8702;48.130;-1.696;2023-04-26T07:25:03;12.50;99.90
17174;DHT22;8702;48.130;-1.696;2023-04-26T07:27:30;12.50;99.90
17174;DHT22;8702;48.130;-1.696;2023-04-26T07:29:59;12.50;99.90
17174;DHT22;8702;48.130;-1.696;2023-04-26T07:32:26;12.50;99.90
17174;DHT22;8702;48.130;-1.696;2023-04-26T07:34:53;12.50;99.90
17174;DHT22;8702;48.130;-1.696;2023-04-26T07:37:20;12.60;99.90
17174;DHT22;8702;48.130;-1.696;2023-04-26T07:39:47;12.70;99.90
17174;DHT22;8702;48.130;-1.696;2023-04-26T07:42:15;12.70;99.90
17174;DHT22;8702;48.130;-1.696;2023-04-26T07:44:42;12.70;99.90
17174;DHT22;8702;48.130;-1.696;2023-04-26T07:47:12;12.70;99.90
17174;DHT22;8702;48.130;-1.696;2023-04-26T07:49:39;12.70;99.90
17174;DHT22;8702;48.130;-1.696;2023-04-26T07:52:08;12.70;99.90
17174;DHT22;8702;48.130;-1.696;2023-04-26T07:54:35;12.70;99.90
17174;DHT22;8702;48.130;-1.696;2023-04-26T07:57:02;12.80;99.90
17174;DHT22;8702;48.130;-1.696;2023-04-26T07:59:30;12.80;99.90
17174;DHT22;8702;48.130;-1.696;2023-04-26T08:01:57;12.80;99.90
17174;DHT22;8702;48.130;-1.696;2023-04-26T08:04:31;13.00;99.90
17174;DHT22;8702;48.130;-1.696;2023-04-26T08:06:59;12.80;99.90
17174;DHT22;8702;48.130;-1.696;2023-04-26T08:09:27;12.80;99.90
17174;DHT22;8702;48.130;-1.696;2023-04-26T08:11:55;12.80;99.90
17174;DHT22;8702;48.130;-1.696;2023-04-26T08:14:22;12.90;99.90
17174;DHT22;8702;48.130;-1.696;2023-04-26T08:16:50;13.00;99.90
17174;DHT22;8702;48.130;-1.696;2023-04-26T08:19:17;13.00;99.90
17174;DHT22;8702;48.130;-1.696;2023-04-26T08:21:44;12.90;99.90
17174;DHT22;8702;48.130;-1.696;2023-04-26T08:26:38;13.00;99.90
17174;DHT22;8702;48.130;-1.696;2023-04-26T08:29:05;12.90;99.90
17174;DHT22;8702;48.130;-1.696;2023-04-26T08:36:35;13.10;99.90
17174;DHT22;8702;48.130;-1.696;2023-04-26T08:41:35;13.20;99.90
17174;DHT22;8702;48.130;-1.696;2023-04-26T08:44:03;13.30;99.90
17174;DHT22;8702;48.130;-1.696;2023-04-26T08:46:36;13.30;99.90
17174;DHT22;8702;48.130;-1.696;2023-04-26T08:49:15;13.30;99.90
17174;DHT22;8702;48.130;-1.696;2023-04-26T08:51:46;13.30;99.90
17174;DHT22;8702;48.130;-1.696;2023-04-26T08:54:13;13.40;99.90
17174;DHT22;8702;48.130;-1.696;2023-04-26T08:56:42;13.40;99.90
17174;DHT22;8702;48.130;-1.696;2023-04-26T09:01:38;13.40;99.90
17174;DHT22;8702;48.130;-1.696;2023-04-26T09:04:09;13.40;99.90
17174;DHT22;8702;48.130;-1.696;2023-04-26T09:06:37;13.40;99.90
17174;DHT22;8702;48.130;-1.696;2023-04-26T09:09:07;13.40;99.90
17174;DHT22;8702;48.130;-1.696;2023-04-26T09:14:16;13.40;99.90
17174;DHT22;8702;48.130;-1.696;2023-04-26T09:16:45;13.60;99.90
17174;DHT22;8702;48.130;-1.696;2023-04-26T09:21:43;13.40;99.90
17174;DHT22;8702;48.130;-1.696;2023-04-26T09:26:38;13.60;99.90
17174;DHT22;8702;48.130;-1.696;2023-04-26T09:29:13;13.50;99.90
17174;DHT22;8702;48.130;-1.696;2023-04-26T09:31:42;13.60;99.90
17174;DHT22;8702;48.130;-1.696;2023-04-26T09:34:10;13.60;99.90
17174;DHT22;8702;48.130;-1.696;2023-04-26T09:36:49;13.70;99.90
17174;DHT22;8702;48.130;-1.696;2023-04-26T09:39:29;13.70;99.90
17174;DHT22;8702;48.130;-1.696;2023-04-26T09:41:57;13.70;99.90
17174;DHT22;8702;48.130;-1.696;2023-04-26T09:44:24;13.70;99.90
17174;DHT22;8702;48.130;-1.696;2023-04-26T09:46:59;14.10;99.90
17174;DHT22;8702;48.130;-1.696;2023-04-26T09:49:27;13.80;99.90
17174;DHT22;8702;48.130;-1.696;2023-04-26T09:52:03;13.90;99.90
17174;DHT22;8702;48.130;-1.696;2023-04-26T09:54:41;13.90;99.90
17174;DHT22;8702;48.130;-1.696;2023-04-26T09:57:09;13.90;99.90
17174;DHT22;8702;48.130;-1.696;2023-04-26T09:59:41;13.90;99.90
17174;DHT22;8702;48.130;-1.696;2023-04-26T10:02:12;13.90;99.90
17174;DHT22;8702;48.130;-1.696;2023-04-26T10:04:41;14.00;99.90
17174;DHT22;8702;48.130;-1.696;2023-04-26T10:07:11;14.00;99.90
17174;DHT22;8702;48.130;-1.696;2023-04-26T10:09:38;14.10;99.90
17174;DHT22;8702;48.130;-1.696;2023-04-26T10:12:05;14.10;99.90
17174;DHT22;8702;48.130;-1.696;2023-04-26T10:14:33;14.20;99.90
17174;DHT22;8702;48.130;-1.696;2023-04-26T10:17:02;14.30;99.90
17174;DHT22;8702;48.130;-1.696;2023-04-26T10:19:31;14.30;99.90
17174;DHT22;8702;48.130;-1.696;2023-04-26T10:22:03;14.30;99.90
17174;DHT22;8702;48.130;-1.696;2023-04-26T10:24:33;14.50;99.90
17174;DHT22;8702;48.130;-1.696;2023-04-26T10:27:01;14.60;99.90
17174;DHT22;8702;48.130;-1.696;2023-04-26T10:30:05;14.60;99.90
17174;DHT22;8702;48.130;-1.696;2023-04-26T10:35:34;14.80;99.90
17174;DHT22;8702;48.130;-1.696;2023-04-26T10:38:08;14.80;99.90
17174;DHT22;8702;48.130;-1.696;2023-04-26T10:40:38;14.90;99.90
17174;DHT22;8702;48.130;-1.696;2023-04-26T10:43:32;15.00;99.90
17174;DHT22;8702;48.130;-1.696;2023-04-26T10:46:32;14.60;99.90
17174;DHT22;8702;48.130;-1.696;2023-04-26T10:49:12;15.10;99.90
17174;DHT22;8702;48.130;-1.696;2023-04-26T10:51:39;15.10;99.90
17174;DHT22;8702;48.130;-1.696;2023-04-26T10:54:06;15.10;99.90
17174;DHT22;8702;48.130;-1.696;2023-04-26T10:56:52;15.20;99.90
17174;DHT22;8702;48.130;-1.696;2023-04-26T10:59:21;15.30;99.90
17174;DHT22;8702;48.130;-1.696;2023-04-26T11:01:48;15.30;99.90
17174;DHT22;8702;48.130;-1.696;2023-04-26T11:04:15;15.40;99.90
17174;DHT22;8702;48.130;-1.696;2023-04-26T11:09:35;15.50;99.90
17174;DHT22;8702;48.130;-1.696;2023-04-26T11:12:10;15.40;99.90
17174;DHT22;8702;48.130;-1.696;2023-04-26T11:14:38;15.40;99.90
17174;DHT22;8702;48.130;-1.696;2023-04-26T11:17:07;15.50;99.90
17174;DHT22;8702;48.130;-1.696;2023-04-26T11:19:34;15.60;99.90
17174;DHT22;8702;48.130;-1.696;2023-04-26T11:26:58;15.80;99.90
17174;DHT22;8702;48.130;-1.696;2023-04-26T11:29:26;15.90;99.90
17174;DHT22;8702;48.130;-1.696;2023-04-26T11:31:53;15.90;99.90
17174;DHT22;8702;48.130;-1.696;2023-04-26T11:34:30;16.00;99.90
17174;DHT22;8702;48.130;-1.696;2023-04-26T11:36:58;15.80;99.90
17174;DHT22;8702;48.130;-1.696;2023-04-26T11:39:24;15.70;99.90
17174;DHT22;8702;48.130;-1.696;2023-04-26T11:41:55;15.70;99.90
17174;DHT22;8702;48.130;-1.696;2023-04-26T11:44:31;15.80;99.90
17174;DHT22;8702;48.130;-1.696;2023-04-26T11:46:59;15.70;99.90
17174;DHT22;8702;48.130;-1.696;2023-04-26T11:49:28;15.70;99.90
17174;DHT22;8702;48.130;-1.696;2023-04-26T11:51:56;15.70;99.90
17174;DHT22;8702;48.130;-1.696;2023-04-26T11:54:26;15.70;99.90
17174;DHT22;8702;48.130;-1.696;2023-04-26T11:56:54;15.60;99.90
17174;DHT22;8702;48.130;-1.696;2023-04-26T11:59:24;15.70;99.90
17174;DHT22;8702;48.130;-1.696;2023-04-26T12:01:54;15.50;99.90
17174;DHT22;8702;48.130;-1.696;2023-04-26T12:04:26;15.50;99.90
17174;DHT22;8702;48.130;-1.696;2023-04-26T12:06:55;15.40;99.90
17174;DHT22;8702;48.130;-1.696;2023-04-26T12:09:22;15.50;99.90
17174;DHT22;8702;48.130;-1.696;2023-04-26T12:11:55;15.50;99.90
17174;DHT22;8702;48.130;-1.696;2023-04-26T12:14:29;15.50;99.90
17174;DHT22;8702;48.130;-1.696;2023-04-26T12:16:59;15.70;99.90
17174;DHT22;8702;48.130;-1.696;2023-04-26T12:19:26;15.80;99.90
17174;DHT22;8702;48.130;-1.696;2023-04-26T12:21:53;15.80;99.90
17174;DHT22;8702;48.130;-1.696;2023-04-26T12:24:21;15.90;99.90
17174;DHT22;8702;48.130;-1.696;2023-04-26T12:26:48;16.10;99.90
17174;DHT22;8702;48.130;-1.696;2023-04-26T12:29:15;16.20;99.90
17174;DHT22;8702;48.130;-1.696;2023-04-26T12:31:42;16.30;99.90
17174;DHT22;8702;48.130;-1.696;2023-04-26T12:34:11;16.40;99.90
17174;DHT22;8702;48.130;-1.696;2023-04-26T12:36:39;16.40;99.90
17174;DHT22;8702;48.130;-1.696;2023-04-26T12:39:08;16.30;99.90
17174;DHT22;8702;48.130;-1.696;2023-04-26T12:41:36;16.40;99.90
17174;DHT22;8702;48.130;-1.696;2023-04-26T12:44:04;16.50;99.90
17174;DHT22;8702;48.130;-1.696;2023-04-26T12:46:31;16.50;99.90
17174;DHT22;8702;48.130;-1.696;2023-04-26T12:48:57;16.60;99.90
17174;DHT22;8702;48.130;-1.696;2023-04-26T12:51:26;16.70;99.90
17174;DHT22;8702;48.130;-1.696;2023-04-26T12:53:53;16.90;99.90
17174;DHT22;8702;48.130;-1.696;2023-04-26T12:56:20;16.80;99.90
17174;DHT22;8702;48.130;-1.696;2023-04-26T12:58:47;16.70;99.90
17174;DHT22;8702;48.130;-1.696;2023-04-26T13:01:14;16.90;99.90
17174;DHT22;8702;48.130;-1.696;2023-04-26T13:03:41;16.80;99.90
17174;DHT22;8702;48.130;-1.696;2023-04-26T13:06:08;16.80;99.90
17174;DHT22;8702;48.130;-1.696;2023-04-26T13:08:37;16.90;99.90
17174;DHT22;8702;48.130;-1.696;2023-04-26T13:11:04;16.90;99.90
17174;DHT22;8702;48.130;-1.696;2023-04-26T13:13:31;16.70;99.90
17174;DHT22;8702;48.130;-1.696;2023-04-26T13:15:58;16.70;99.90
17174;DHT22;8702;48.130;-1.696;2023-04-26T13:18:25;16.70;99.90
17174;DHT22;8702;48.130;-1.696;2023-04-26T13:20:52;16.80;99.90
17174;DHT22;8702;48.130;-1.696;2023-04-26T13:23:18;16.90;99.90
17174;DHT22;8702;48.130;-1.696;2023-04-26T13:25:47;16.90;99.90
17174;DHT22;8702;48.130;-1.696;2023-04-26T13:28:14;16.90;99.90
17174;DHT22;8702;48.130;-1.696;2023-04-26T13:30:42;16.90;99.90
17174;DHT22;8702;48.130;-1.696;2023-04-26T13:33:09;16.80;99.90
17174;DHT22;8702;48.130;-1.696;2023-04-26T13:35:36;16.60;99.90
17174;DHT22;8702;48.130;-1.696;2023-04-26T13:38:03;16.60;99.90
17174;DHT22;8702;48.130;-1.696;2023-04-26T13:40:30;16.50;99.90
17174;DHT22;8702;48.130;-1.696;2023-04-26T13:42:58;16.70;99.90
17174;DHT22;8702;48.130;-1.696;2023-04-26T13:45:25;16.70;99.90
17174;DHT22;8702;48.130;-1.696;2023-04-26T13:47:52;16.80;99.90
17174;DHT22;8702;48.130;-1.696;2023-04-26T13:50:19;16.90;99.90
17174;DHT22;8702;48.130;-1.696;2023-04-26T13:52:46;17.00;99.90
17174;DHT22;8702;48.130;-1.696;2023-04-26T13:55:15;17.20;99.90
17174;DHT22;8702;48.130;-1.696;2023-04-26T13:57:42;17.30;99.90
17174;DHT22;8702;48.130;-1.696;2023-04-26T14:00:12;17.40;99.90
17174;DHT22;8702;48.130;-1.696;2023-04-26T14:02:39;17.30;99.90
17174;DHT22;8702;48.130;-1.696;2023-04-26T14:05:07;17.40;99.90
17174;DHT22;8702;48.130;-1.696;2023-04-26T14:07:34;17.50;99.90
17174;DHT22;8702;48.130;-1.696;2023-04-26T14:10:01;17.50;99.90
17174;DHT22;8702;48.130;-1.696;2023-04-26T14:12:28;17.40;99.90
17174;DHT22;8702;48.130;-1.696;2023-04-26T14:14:55;17.50;99.90
17174;DHT22;8702;48.130;-1.696;2023-04-26T14:17:23;17.50;99.90
17174;DHT22;8702;48.130;-1.696;2023-04-26T14:19:53;17.50;99.90
17174;DHT22;8702;48.130;-1.696;2023-04-26T14:22:20;17.40;99.90
17174;DHT22;8702;48.130;-1.696;2023-04-26T14:24:47;17.40;99.90
17174;DHT22;8702;48.130;-1.696;2023-04-26T14:27:14;17.40;99.90
17174;DHT22;8702;48.130;-1.696;2023-04-26T14:29:41;17.30;99.90
17174;DHT22;8702;48.130;-1.696;2023-04-26T14:32:08;17.20;99.90
17174;DHT22;8702;48.130;-1.696;2023-04-26T14:34:36;17.30;99.90
17174;DHT22;8702;48.130;-1.696;2023-04-26T14:37:04;17.10;99.90
17174;DHT22;8702;48.130;-1.696;2023-04-26T14:39:31;17.20;99.90
17174;DHT22;8702;48.130;-1.696;2023-04-26T14:41:58;17.40;99.90
17174;DHT22;8702;48.130;-1.696;2023-04-26T14:44:26;17.60;99.90
17174;DHT22;8702;48.130;-1.696;2023-04-26T14:46:54;17.70;99.90
17174;DHT22;8702;48.130;-1.696;2023-04-26T14:49:21;17.90;99.90
17174;DHT22;8702;48.130;-1.696;2023-04-26T14:51:49;17.80;99.90
17174;DHT22;8702;48.130;-1.696;2023-04-26T14:54:16;17.90;99.90
17174;DHT22;8702;48.130;-1.696;2023-04-26T14:56:44;17.90;99.90
17174;DHT22;8702;48.130;-1.696;2023-04-26T14:59:11;18.30;99.90
17174;DHT22;8702;48.130;-1.696;2023-04-26T15:01:38;18.80;99.90
17174;DHT22;8702;48.130;-1.696;2023-04-26T15:04:05;19.20;99.90
17174;DHT22;8702;48.130;-1.696;2023-04-26T15:06:32;19.40;99.90
17174;DHT22;8702;48.130;-1.696;2023-04-26T15:09:00;19.70;99.90
17174;DHT22;8702;48.130;-1.696;2023-04-26T15:11:28;19.70;99.90
17174;DHT22;8702;48.130;-1.696;2023-04-26T15:13:55;19.80;99.90
17174;DHT22;8702;48.130;-1.696;2023-04-26T15:16:22;19.90;99.90
17174;DHT22;8702;48.130;-1.696;2023-04-26T15:18:49;20.00;99.90
17174;DHT22;8702;48.130;-1.696;2023-04-26T15:21:16;20.30;99.90
17174;DHT22;8702;48.130;-1.696;2023-04-26T15:23:43;20.50;99.90
17174;DHT22;8702;48.130;-1.696;2023-04-26T15:26:11;20.60;99.90
17174;DHT22;8702;48.130;-1.696;2023-04-26T15:28:38;20.50;99.90
17174;DHT22;8702;48.130;-1.696;2023-04-26T15:31:07;20.40;99.90
17174;DHT22;8702;48.130;-1.696;2023-04-26T15:33:35;20.30;99.90
17174;DHT22;8702;48.130;-1.696;2023-04-26T15:36:02;20.30;99.90
17174;DHT22;8702;48.130;-1.696;2023-04-26T15:38:29;20.00;99.90
17174;DHT22;8702;48.130;-1.696;2023-04-26T15:40:56;20.00;99.90
17174;DHT22;8702;48.130;-1.696;2023-04-26T15:43:25;19.90;99.90
17174;DHT22;8702;48.130;-1.696;2023-04-26T15:45:52;19.90;99.90
17174;DHT22;8702;48.130;-1.696;2023-04-26T15:48:19;19.70;99.90
17174;DHT22;8702;48.130;-1.696;2023-04-26T15:50:46;19.80;99.90
17174;DHT22;8702;48.130;-1.696;2023-04-26T15:53:13;19.80;99.90
17174;DHT22;8702;48.130;-1.696;2023-04-26T15:55:40;19.90;99.90
17174;DHT22;8702;48.130;-1.696;2023-04-26T15:58:07;19.90;99.90
17174;DHT22;8702;48.130;-1.696;2023-04-26T16:00:35;20.10;99.90
17174;DHT22;8702;48.130;-1.696;2023-04-26T16:03:02;20.10;99.90
17174;DHT22;8702;48.130;-1.696;2023-04-26T16:05:29;20.00;99.90
17174;DHT22;8702;48.130;-1.696;2023-04-26T16:07:57;19.90;99.90
17174;DHT22;8702;48.130;-1.696;2023-04-26T16:10:24;19.90;99.90
17174;DHT22;8702;48.130;-1.696;2023-04-26T16:12:51;19.90;99.90
17174;DHT22;8702;48.130;-1.696;2023-04-26T16:15:18;20.00;99.90